Time;durP1;ratioP1;P1;durP2;ratioP2;P2;SDS_P1;SDS_P2;PMS_P1;PMS_P2;Temp;Humidity;BMP_temperature;BMP_pressure;BME280_temperature;BME280_humidity;BME280_pressure;Samples;Min_cycle;Max_cycle;Signal;HPM_P1;HPM_P2
2023/03/30 00:00:56;;;;;;;6.63;2.65;;;;;;;17.73;51.74;100414.47;5075200;28;19920;-65
2023/03/30 00:03:26;;;;;;;14.45;2.58;;;;;;;17.88;51.46;100413.59;5059611;28;20049;-66
2023/03/30 00:05:57;;;;;;;11.80;2.38;;;;;;;17.82;51.96;100405.88;5074791;28;20059;-65
2023/03/30 00:08:28;;;;;;;11.45;2.72;;;;;;;17.87;51.93;100391.63;5058859;28;20048;-66
2023/03/30 00:11:02;;;;;;;11.02;2.95;;;;;;;17.79;52.68;100390.72;5075676;28;20635;-66
2023/03/30 00:13:32;;;;;;;9.40;3.15;;;;;;;17.86;52.93;100370.53;5065902;28;20053;-66
2023/03/30 00:16:00;;;;;;;10.25;2.72;;;;;;;17.82;53.45;100364.09;5060824;28;20061;-65
2023/03/30 00:18:28;;;;;;;12.95;2.78;;;;;;;17.61;54.49;100358.09;5075554;28;20057;-64
2023/03/30 00:20:57;;;;;;;9.18;2.58;;;;;;;17.73;54.37;100369.91;5074381;28;20060;-65
2023/03/30 00:23:25;;;;;;;6.50;2.65;;;;;;;17.77;54.44;100381.09;5074835;28;20163;-66
2023/03/30 00:25:52;;;;;;;10.07;2.83;;;;;;;17.54;55.40;100374.72;5071745;28;20056;-65
2023/03/30 00:28:19;;;;;;;9.32;2.90;;;;;;;17.70;55.29;100347.53;5073408;28;20068;-66
2023/03/30 00:30:47;;;;;;;10.18;2.83;;;;;;;17.81;55.35;100337.41;5048053;28;20052;-65
2023/03/30 00:33:15;;;;;;;11.93;3.05;;;;;;;17.90;54.50;100335.97;5074977;28;20052;-66
2023/03/30 00:35:42;;;;;;;10.68;2.70;;;;;;;17.83;54.68;100340.63;5073087;28;20064;-66
2023/03/30 00:38:09;;;;;;;9.40;2.60;;;;;;;17.36;55.85;100343.69;5075753;28;20048;-65
2023/03/30 00:40:37;;;;;;;8.70;2.97;;;;;;;17.41;56.22;100357.31;5074015;28;20062;-65
2023/03/30 00:43:09;;;;;;;7.80;2.55;;;;;;;17.42;55.89;100350.56;5064276;28;20059;-66
2023/03/30 00:45:37;;;;;;;11.02;3.03;;;;;;;17.27;56.42;100354.25;5041394;28;20061;-65
2023/03/30 00:48:14;;;;;;;6.03;2.25;;;;;;;17.30;56.02;100347.94;5073917;28;20059;-65
2023/03/30 00:50:44;;;;;;;10.57;2.20;;;;;;;17.39;55.94;100337.38;5054616;28;20044;-66
2023/03/30 00:53:16;;;;;;;9.93;2.33;;;;;;;17.24;55.89;100360.56;5076320;28;20067;-65
2023/03/30 00:55:45;;;;;;;8.80;2.75;;;;;;;17.35;55.60;100372.69;5072565;28;20510;-65
2023/03/30 00:58:14;;;;;;;8.85;2.47;;;;;;;17.26;55.86;100360.97;5058564;28;20415;-65
2023/03/30 01:00:42;;;;;;;9.65;2.60;;;;;;;17.25;56.11;100362.16;5068040;28;20060;-66
2023/03/30 01:03:16;;;;;;;6.75;2.60;;;;;;;17.31;55.90;100345.97;5056955;28;20048;-65
2023/03/30 01:05:44;;;;;;;6.68;2.33;;;;;;;17.22;56.03;100346.19;5055833;28;20120;-65
2023/03/30 01:08:15;;;;;;;7.30;2.53;;;;;;;17.24;56.55;100348.63;5076048;28;20053;-65
2023/03/30 01:10:43;;;;;;;8.13;2.25;;;;;;;17.32;56.23;100342.00;5056290;28;20063;-66
2023/03/30 01:13:12;;;;;;;9.13;2.70;;;;;;;17.32;56.15;100345.59;5075494;28;20056;-66
2023/03/30 01:15:54;;;;;;;9.65;2.42;;;;;;;17.42;55.96;100353.34;5074767;28;20052;-65
2023/03/30 01:18:31;;;;;;;7.40;2.47;;;;;;;17.36;56.09;100354.84;5058280;28;20048;-65
2023/03/30 01:21:16;;;;;;;9.82;2.40;;;;;;;17.27;56.46;100359.00;5056243;28;20412;-65
2023/03/30 01:23:45;;;;;;;9.65;2.17;;;;;;;17.25;56.80;100342.66;5075256;28;20052;-65
2023/03/30 01:26:33;;;;;;;10.50;2.50;;;;;;;17.36;56.67;100346.47;5073240;28;20048;-66
2023/03/30 01:29:15;;;;;;;7.82;2.10;;;;;;;17.14;57.30;100347.19;5074965;28;20056;-66
2023/03/30 01:32:10;;;;;;;8.13;2.45;;;;;;;17.10;57.66;100345.53;5073023;28;20048;-65
2023/03/30 01:34:58;;;;;;;8.23;2.25;;;;;;;16.80;58.51;100351.66;5054326;28;20067;-65
2023/03/30 01:38:07;;;;;;;7.00;1.90;;;;;;;16.81;58.83;100369.13;5073394;28;20048;-64
2023/03/30 01:40:48;;;;;;;10.32;2.10;;;;;;;16.73;58.92;100382.09;5051426;28;20059;-65
2023/03/30 01:43:59;;;;;;;7.90;2.00;;;;;;;16.59;59.72;100383.72;5074317;28;20048;-65
2023/03/30 01:46:29;;;;;;;9.20;2.20;;;;;;;16.71;59.44;100376.09;5050398;28;20061;-64
2023/03/30 01:49:21;;;;;;;5.78;1.75;;;;;;;16.59;59.66;100362.31;5074388;28;20059;-65
2023/03/30 01:52:00;;;;;;;7.18;1.90;;;;;;;16.75;59.50;100376.16;5073510;28;20063;-66
2023/03/30 01:54:35;;;;;;;5.72;1.70;;;;;;;16.88;59.20;100370.13;5075255;28;20052;-66
2023/03/30 01:57:14;;;;;;;9.25;1.83;;;;;;;16.83;58.57;100369.59;5052763;28;20053;-65
2023/03/30 01:59:55;;;;;;;6.85;1.90;;;;;;;16.92;58.41;100369.38;5040364;28;20060;-65
2023/03/30 02:02:27;;;;;;;6.15;2.03;;;;;;;16.92;57.93;100366.59;5056497;28;20067;-64
2023/03/30 02:04:56;;;;;;;9.20;2.00;;;;;;;16.77;58.42;100337.69;5057525;28;20045;-64
2023/03/30 02:07:30;;;;;;;7.32;1.80;;;;;;;16.82;58.21;100335.38;5060298;28;20436;-65
2023/03/30 02:10:01;;;;;;;5.85;2.22;;;;;;;16.64;58.24;100350.91;5061132;28;20052;-65
2023/03/30 02:12:29;;;;;;;5.85;2.00;;;;;;;16.88;57.84;100364.53;5078032;28;20052;-64
2023/03/30 02:15:03;;;;;;;6.25;2.15;;;;;;;16.78;58.00;100364.31;5078199;28;20056;-65
2023/03/30 02:17:30;;;;;;;6.15;1.52;;;;;;;16.73;58.19;100370.16;5056686;28;20060;-64
2023/03/30 02:19:59;;;;;;;5.93;1.77;;;;;;;16.66;58.84;100383.91;5061542;28;20052;-64
2023/03/30 02:22:29;;;;;;;7.38;2.42;;;;;;;16.28;59.05;100398.47;5076610;28;20500;-64
2023/03/30 02:24:59;;;;;;;12.68;2.38;;;;;;;16.18;59.96;100400.97;5062137;28;20063;-65
2023/03/30 02:27:26;;;;;;;5.70;1.88;;;;;;;16.09;60.24;100387.22;5076473;28;20044;-65
2023/03/30 02:29:55;;;;;;;7.93;1.90;;;;;;;16.13;60.25;100381.75;5077064;28;20040;-65
2023/03/30 02:32:28;;;;;;;5.57;2.10;;;;;;;16.00;60.54;100383.03;5076385;28;20056;-65
2023/03/30 02:34:55;;;;;;;7.88;1.95;;;;;;;16.17;60.51;100396.56;5078893;28;20063;-65
2023/03/30 02:37:31;;;;;;;6.78;1.67;;;;;;;16.36;59.42;100414.13;5077614;28;20055;-65
2023/03/30 02:40:01;;;;;;;9.20;1.95;;;;;;;16.23;59.51;100414.59;5077320;28;20048;-65
2023/03/30 02:42:44;;;;;;;8.35;1.60;;;;;;;16.22;59.41;100419.34;5075315;28;20045;-64
2023/03/30 02:45:20;;;;;;;5.82;1.50;;;;;;;15.98;60.11;100424.22;5077757;28;20435;-64
2023/03/30 02:48:00;;;;;;;7.30;1.70;;;;;;;15.86;60.97;100429.88;5059567;28;20415;-66
2023/03/30 02:50:53;;;;;;;6.75;1.85;;;;;;;15.83;61.30;100414.69;5060086;28;20059;-65
2023/03/30 02:53:44;;;;;;;6.00;1.77;;;;;;;15.83;61.31;100425.81;5075867;28;20063;-65
2023/03/30 02:56:32;;;;;;;8.95;2.10;;;;;;;15.83;61.13;100425.81;5047349;28;20060;-65
2023/03/30 02:59:15;;;;;;;8.00;1.98;;;;;;;16.13;60.86;100427.03;5041307;28;20056;-65
2023/03/30 03:01:56;;;;;;;8.10;2.08;;;;;;;15.99;60.63;100423.88;5073415;28;20491;-66
2023/03/30 03:04:27;;;;;;;7.78;1.63;;;;;;;15.66;61.88;100431.69;5077740;28;20055;-65
2023/03/30 03:07:19;;;;;;;8.07;1.73;;;;;;;15.82;61.78;100421.44;5049018;28;20060;-66
2023/03/30 03:09:47;;;;;;;7.20;1.60;;;;;;;15.71;61.73;100414.78;5041154;28;20119;-66
2023/03/30 03:12:14;;;;;;;5.40;1.52;;;;;;;15.53;62.76;100414.28;5072546;28;20052;-65
2023/03/30 03:14:42;;;;;;;7.07;1.85;;;;;;;15.57;62.64;100419.94;5076460;28;20055;-67
2023/03/30 03:17:12;;;;;;;8.48;1.70;;;;;;;15.31;63.73;100417.56;5055525;28;20049;-65
2023/03/30 03:19:43;;;;;;;10.18;2.05;;;;;;;15.28;64.25;100407.19;5057093;28;20056;-65
2023/03/30 03:22:11;;;;;;;8.65;1.80;;;;;;;15.35;63.96;100409.34;5039393;28;20053;-64
2023/03/30 03:24:39;;;;;;;5.30;1.67;;;;;;;15.38;64.13;100408.63;5076367;28;20083;-65
2023/03/30 03:27:33;;;;;;;5.25;1.60;;;;;;;15.29;64.28;100405.22;5075412;28;20071;-65
2023/03/30 03:30:20;;;;;;;6.20;1.40;;;;;;;15.36;64.37;100416.53;5077341;28;20079;-65
2023/03/30 03:32:58;;;;;;;6.53;1.63;;;;;;;15.14;64.88;100419.81;5076113;28;20061;-65
2023/03/30 03:35:28;;;;;;;;;;;;;;;15.11;65.38;100426.91;5075694;28;20055;-65
2023/03/30 03:37:57;;;;;;;7.82;1.70;;;;;;;15.27;65.16;100422.22;5058680;28;19935;-65
2023/03/30 03:40:25;;;;;;;7.00;1.60;;;;;;;15.34;64.86;100416.88;5058275;28;20412;-66
2023/03/30 03:42:53;;;;;;;6.25;2.03;;;;;;;15.18;64.85;100424.34;5075873;28;20123;-65
2023/03/30 03:45:20;;;;;;;10.10;2.08;;;;;;;15.16;65.50;100429.44;5076229;28;20393;-65
2023/03/30 03:47:56;;;;;;;4.85;1.55;;;;;;;15.09;65.65;100436.72;5075212;28;20051;-65
2023/03/30 03:50:35;;;;;;;6.63;1.90;;;;;;;14.95;65.98;100433.50;5072356;28;20053;-66
2023/03/30 03:53:03;;;;;;;6.60;1.75;;;;;;;14.91;66.97;100432.59;5076744;28;20045;-65
2023/03/30 03:55:33;;;;;;;9.32;1.90;;;;;;;15.18;66.20;100418.78;5076037;28;20059;-65
2023/03/30 03:58:03;;;;;;;8.30;1.98;;;;;;;15.14;65.53;100426.19;5076026;28;20052;-65
2023/03/30 04:00:30;;;;;;;7.38;1.70;;;;;;;14.95;66.59;100437.09;5057756;28;20056;-65
2023/03/30 04:02:58;;;;;;;9.18;1.75;;;;;;;15.15;66.47;100433.34;5075750;28;20052;-65
2023/03/30 04:05:25;;;;;;;6.35;1.48;;;;;;;15.05;66.34;100436.59;5074652;28;20059;-65
2023/03/30 04:07:52;;;;;;;8.93;1.65;;;;;;;14.93;66.91;100441.38;5076318;28;20395;-65
2023/03/30 04:10:20;;;;;;;7.07;1.90;;;;;;;14.97;66.94;100443.09;5075562;28;20079;-65
2023/03/30 04:13:03;;;;;;;9.68;2.22;;;;;;;15.19;66.17;100430.66;5068187;28;20052;-65
2023/03/30 04:15:49;;;;;;;9.63;2.22;;;;;;;15.14;66.17;100423.41;5060774;28;20056;-66
2023/03/30 04:18:33;;;;;;;8.57;1.60;;;;;;;15.07;66.40;100419.59;5069534;28;20056;-66
2023/03/30 04:21:30;;;;;;;9.02;2.22;;;;;;;14.95;66.59;100423.22;5030104;28;20495;-66
2023/03/30 04:24:13;;;;;;;11.13;2.10;;;;;;;15.07;66.45;100414.06;5061510;28;20047;-66
2023/03/30 04:26:52;;;;;;;6.97;2.03;;;;;;;15.25;65.95;100415.41;5075804;28;20048;-67
2023/03/30 04:29:39;;;;;;;8.70;2.20;;;;;;;15.40;65.77;100425.78;5075452;28;20295;-66
2023/03/30 04:32:25;;;;;;;9.73;2.28;;;;;;;15.21;65.46;100422.81;5075325;28;20060;-67
2023/03/30 04:35:08;;;;;;;12.32;2.50;;;;;;;15.20;66.31;100429.53;5075412;28;20051;-65
2023/03/30 04:37:59;;;;;;;8.63;2.20;;;;;;;15.17;65.80;100433.00;5060146;28;20695;-65
2023/03/30 04:41:05;;;;;;;9.18;1.85;;;;;;;14.92;67.07;100420.34;5032399;28;20061;-65
2023/03/30 04:43:47;;;;;;;7.00;1.55;;;;;;;14.71;67.87;100417.72;5017959;28;20056;-65
2023/03/30 04:46:34;;;;;;;8.25;1.80;;;;;;;14.78;67.75;100426.25;5060272;28;20063;-66
2023/03/30 04:49:24;;;;;;;7.13;1.95;;;;;;;14.79;67.78;100438.16;5037374;28;20070;-66
2023/03/30 04:52:10;;;;;;;5.20;1.67;;;;;;;14.81;67.85;100439.44;5069947;28;20527;-65
2023/03/30 04:54:58;;;;;;;7.95;1.88;;;;;;;15.02;67.40;100437.31;5073657;28;20061;-66
2023/03/30 04:57:45;;;;;;;8.57;2.15;;;;;;;14.71;68.34;100447.41;5073583;28;20051;-65
2023/03/30 05:00:33;;;;;;;10.48;2.05;;;;;;;14.72;68.32;100444.28;5073886;28;20045;-64
2023/03/30 05:03:22;;;;;;;9.77;1.98;;;;;;;14.68;68.51;100446.94;5062338;28;20040;-66
2023/03/30 05:06:16;;;;;;;9.60;1.77;;;;;;;14.59;68.89;100445.44;5063690;28;20060;-67
2023/03/30 05:09:08;;;;;;;11.35;1.85;;;;;;;14.64;69.04;100454.31;5067924;28;20407;-65
2023/03/30 05:12:03;;;;;;;12.98;2.42;;;;;;;14.43;69.28;100461.16;5040996;28;20056;-66
2023/03/30 05:14:39;;;;;;;10.45;2.70;;;;;;;14.57;69.52;100461.63;5064984;28;20049;-67
2023/03/30 05:17:32;;;;;;;10.13;2.28;;;;;;;14.80;68.66;100479.41;5070047;28;20044;-66
2023/03/30 05:20:17;;;;;;;10.80;2.38;;;;;;;14.46;69.53;100480.66;5073407;28;20060;-64
2023/03/30 05:23:03;;;;;;;10.38;2.25;;;;;;;14.64;69.16;100487.59;5075468;28;20143;-65
2023/03/30 05:25:49;;;;;;;11.15;2.35;;;;;;;14.56;69.05;100487.69;5074588;28;20056;-66
2023/03/30 05:28:35;;;;;;;12.10;2.63;;;;;;;14.52;69.43;100490.34;5075441;28;20045;-65
2023/03/30 05:31:26;;;;;;;10.82;2.10;;;;;;;14.49;69.66;100501.31;5074316;28;20049;-65
2023/03/30 05:34:15;;;;;;;10.52;2.65;;;;;;;14.39;70.31;100507.31;5074419;28;20044;-66
2023/03/30 05:36:52;;;;;;;13.93;2.30;;;;;;;14.58;69.66;100511.16;5072088;28;20052;-65
2023/03/30 05:39:39;;;;;;;19.25;3.10;;;;;;;14.48;69.83;100505.25;5059556;28;20048;-67
2023/03/30 05:42:26;;;;;;;13.20;2.53;;;;;;;14.44;69.95;100509.84;5069479;28;20052;-66
2023/03/30 05:45:03;;;;;;;14.75;2.72;;;;;;;14.34;70.34;100513.91;5074821;28;20052;-65
2023/03/30 05:47:53;;;;;;;11.25;2.35;;;;;;;14.53;69.93;100503.06;5072638;28;20086;-65
2023/03/30 05:50:21;;;;;;;12.65;2.88;;;;;;;14.60;69.50;100508.84;5073813;28;20048;-66
2023/03/30 05:52:52;;;;;;;13.82;2.78;;;;;;;14.63;69.30;100513.69;5074081;28;20076;-65
2023/03/30 05:55:43;;;;;;;12.65;2.55;;;;;;;14.93;68.28;100517.06;5059489;28;20067;-66
2023/03/30 05:58:46;;;;;;;14.50;2.47;;;;;;;14.71;68.87;100523.06;5062823;28;20054;-66
2023/03/30 06:01:32;;;;;;;13.63;2.83;;;;;;;14.66;69.03;100526.88;5073237;28;20060;-66
2023/03/30 06:04:02;;;;;;;13.60;2.55;;;;;;;15.02;68.40;100537.19;5057623;28;20048;-65
2023/03/30 06:06:30;;;;;;;13.32;2.42;;;;;;;14.85;68.90;100529.09;5071138;28;20056;-66
2023/03/30 06:08:58;;;;;;;17.20;3.08;;;;;;;14.73;69.61;100544.91;5074377;28;20052;-65
2023/03/30 06:11:27;;;;;;;10.85;2.30;;;;;;;14.77;69.62;100546.63;5072882;28;20044;-65
2023/03/30 06:14:03;;;;;;;13.05;2.60;;;;;;;14.89;68.92;100546.63;5074280;28;20056;-65
2023/03/30 06:16:31;;;;;;;13.60;2.53;;;;;;;15.11;68.31;100548.97;5036090;28;20061;-66
2023/03/30 06:18:59;;;;;;;15.20;3.20;;;;;;;14.85;69.49;100548.50;5055752;28;20059;-67
2023/03/30 06:21:27;;;;;;;16.33;2.65;;;;;;;14.90;69.31;100553.81;5072265;28;20052;-66
2023/03/30 06:24:18;;;;;;;11.82;2.50;;;;;;;14.97;68.97;100556.81;5052896;28;20045;-65
2023/03/30 06:26:48;;;;;;;15.80;5.65;;;;;;;15.01;68.74;100552.19;5067156;28;20060;-66
2023/03/30 06:29:15;;;;;;;12.10;2.75;;;;;;;14.83;69.16;100542.50;5059111;28;20412;-65
2023/03/30 06:31:43;;;;;;;10.63;2.35;;;;;;;14.91;69.12;100551.84;5061969;28;20048;-65
2023/03/30 06:34:33;;;;;;;15.13;2.78;;;;;;;14.82;69.04;100548.38;5065025;28;20049;-66
2023/03/30 06:37:01;;;;;;;14.38;2.63;;;;;;;14.80;69.29;100557.06;5053751;28;20071;-65
2023/03/30 06:39:29;;;;;;;15.32;3.17;;;;;;;14.91;69.20;100562.94;5067385;28;20056;-66
2023/03/30 06:41:56;;;;;;;17.65;3.00;;;;;;;14.76;69.46;100558.88;5061414;28;20041;-66
2023/03/30 06:44:34;;;;;;;17.73;3.63;;;;;;;15.18;68.33;100563.06;5059487;28;20059;-66
2023/03/30 06:47:08;;;;;;;11.77;2.90;;;;;;;15.22;67.84;100572.28;5042343;28;20074;-66
2023/03/30 06:49:36;;;;;;;21.88;3.33;;;;;;;14.79;68.69;100587.88;5063524;28;20048;-65
2023/03/30 06:52:32;;;;;;;16.25;3.10;;;;;;;14.62;69.77;100600.81;5046089;28;20060;-65
2023/03/30 06:55:00;;;;;;;17.98;3.17;;;;;;;14.66;69.84;100595.38;5067281;28;20056;-65
2023/03/30 06:57:27;;;;;;;13.80;2.75;;;;;;;14.80;69.50;100601.41;5068551;28;20455;-65
2023/03/30 06:59:55;;;;;;;16.88;2.92;;;;;;;14.87;68.94;100612.72;5067479;28;20052;-66
2023/03/30 07:02:32;;;;;;;11.85;2.35;;;;;;;14.85;69.33;100614.25;5067820;28;20049;-65
2023/03/30 07:05:00;;;;;;;15.07;3.38;;;;;;;14.97;68.70;100606.75;5069265;28;20056;-65
2023/03/30 07:07:37;;;;;;;15.18;2.65;;;;;;;15.01;68.12;100604.09;5066728;28;20044;-66
2023/03/30 07:10:09;;;;;;;16.67;3.25;;;;;;;15.00;68.86;100621.88;5058242;28;20348;-65
2023/03/30 07:12:37;;;;;;;17.30;3.17;;;;;;;15.26;68.23;100614.03;5070967;28;20044;-66
2023/03/30 07:15:06;;;;;;;12.73;3.13;;;;;;;15.32;67.82;100616.25;5071185;28;20052;-66
2023/03/30 07:17:35;;;;;;;16.55;3.10;;;;;;;15.19;68.09;100613.78;5059084;28;20052;-64
2023/03/30 07:20:05;;;;;;;17.73;3.70;;;;;;;15.48;66.98;100621.94;5065569;28;20064;-65
2023/03/30 07:22:34;;;;;;;9.45;2.20;;;;;;;15.59;68.58;100631.38;5063496;28;20044;-65
2023/03/30 07:25:03;;;;;;;16.65;3.25;;;;;;;15.67;67.49;100624.91;5032977;28;20934;-64
2023/03/30 07:27:30;;;;;;;17.02;2.92;;;;;;;15.60;66.12;100628.25;5071997;28;20058;-64
2023/03/30 07:29:58;;;;;;;19.27;3.35;;;;;;;15.68;66.06;100638.44;5064187;28;20048;-62
2023/03/30 07:32:45;;;;;;;34.17;3.90;;;;;;;15.98;65.50;100627.03;5049564;28;20045;-62
2023/03/30 07:35:13;;;;;;;17.55;3.20;;;;;;;15.81;65.95;100638.44;5047516;28;20044;-63
2023/03/30 07:37:40;;;;;;;14.70;3.35;;;;;;;15.85;64.80;100636.56;5068179;28;20056;-63
2023/03/30 07:40:08;;;;;;;15.32;2.30;;;;;;;16.07;64.39;100638.81;5068148;28;20492;-62
2023/03/30 07:42:37;;;;;;;16.97;3.30;;;;;;;15.81;64.08;100642.03;5051468;28;20052;-66
2023/03/30 07:45:05;;;;;;;28.40;3.95;;;;;;;15.79;63.83;100634.00;5075605;28;20040;-64
2023/03/30 07:47:33;;;;;;;22.50;4.25;;;;;;;15.76;64.33;100650.56;5067672;28;20060;-64
2023/03/30 07:50:01;;;;;;;16.38;3.25;;;;;;;15.66;64.72;100646.31;5064892;28;20761;-65
2023/03/30 07:52:29;;;;;;;16.38;3.03;;;;;;;15.43;65.38;100641.59;5062868;28;21351;-64
2023/03/30 07:55:00;;;;;;;25.02;3.92;;;;;;;15.38;65.23;100645.38;5059778;28;20064;-64
2023/03/30 07:57:37;;;;;;;16.80;3.38;;;;;;;15.51;65.76;100655.38;5066105;28;20079;-65
2023/03/30 08:00:08;;;;;;;22.25;3.92;;;;;;;15.44;64.48;100660.69;5067459;28;20053;-65
2023/03/30 08:03:01;;;;;;;21.90;3.72;;;;;;;15.33;64.87;100672.53;5065091;28;20055;-64
2023/03/30 08:05:29;;;;;;;17.60;3.88;;;;;;;15.43;65.29;100663.81;5063614;28;20060;-64
2023/03/30 08:08:12;;;;;;;20.45;3.50;;;;;;;15.34;64.20;100663.06;5065781;28;20499;-65
2023/03/30 08:10:40;;;;;;;24.65;4.22;;;;;;;15.20;64.98;100671.72;5068422;28;20067;-66
2023/03/30 08:13:07;;;;;;;17.67;3.72;;;;;;;15.48;65.05;100664.38;5068412;28;20051;-66
2023/03/30 08:15:34;;;;;;;19.75;3.67;;;;;;;15.49;63.80;100674.34;5066137;28;20067;-64
2023/03/30 08:18:05;;;;;;;17.75;3.00;;;;;;;15.51;64.67;100680.34;5073671;28;20048;-65
2023/03/30 08:20:35;;;;;;;19.77;3.50;;;;;;;15.74;63.90;100681.47;5070504;28;20053;-65
2023/03/30 08:23:04;;;;;;;20.77;3.40;;;;;;;15.88;63.36;100688.66;5074003;28;20051;-65
2023/03/30 08:25:31;;;;;;;18.70;3.45;;;;;;;15.89;62.99;100685.50;5073822;28;20709;-64
2023/03/30 08:27:59;;;;;;;25.05;5.00;;;;;;;16.08;62.99;100691.25;5063752;28;20040;-63
2023/03/30 08:30:27;;;;;;;18.85;4.22;;;;;;;15.97;62.02;100694.88;5068019;28;20710;-64
2023/03/30 08:32:54;;;;;;;19.00;3.70;;;;;;;15.97;62.39;100698.47;5072650;28;20052;-65
2023/03/30 08:35:22;;;;;;;24.75;4.50;;;;;;;15.99;62.14;100692.56;5069963;28;20049;-64
2023/03/30 08:37:50;;;;;;;21.38;3.95;;;;;;;16.09;62.12;100684.53;5064771;28;20056;-64
2023/03/30 08:40:17;;;;;;;21.55;4.43;;;;;;;16.37;62.06;100692.94;5071506;28;20047;-65
2023/03/30 08:42:51;;;;;;;18.50;4.20;;;;;;;16.28;61.68;100701.41;5070248;28;20047;-64
2023/03/30 08:45:18;;;;;;;16.48;3.65;;;;;;;16.18;62.33;100706.66;5060884;28;20052;-64
2023/03/30 08:47:48;;;;;;;20.92;3.75;;;;;;;16.13;62.23;100715.22;5072119;28;20048;-64
2023/03/30 08:50:20;;;;;;;;;;;;;;;16.25;62.83;100713.22;5070798;28;20041;-64
2023/03/30 08:52:50;;;;;;;22.83;4.25;;;;;;;16.20;62.75;100707.91;5072700;28;19927;-65
2023/03/30 08:55:23;;;;;;;23.58;4.82;;;;;;;15.78;62.79;100714.91;5061399;28;20056;-66
2023/03/30 08:57:58;;;;;;;22.20;5.68;;;;;;;15.80;63.14;100718.16;5065613;28;20059;-65
2023/03/30 09:00:35;;;;;;;21.63;5.07;;;;;;;16.20;62.73;100713.47;5072970;28;20040;-65
2023/03/30 09:03:28;;;;;;;19.50;5.45;;;;;;;16.27;61.87;100713.69;5054394;28;20052;-65
2023/03/30 09:06:55;;;;;;;23.25;5.05;;;;;;;16.43;61.89;100719.31;5037019;28;20061;-66
2023/03/30 09:09:25;;;;;;;23.48;4.63;;;;;;;16.07;62.53;100727.75;4977528;28;20062;-67
2023/03/30 09:12:21;;;;;;;23.00;4.38;;;;;;;16.18;63.25;100726.13;5047193;28;20067;-67
2023/03/30 09:14:57;;;;;;;19.30;4.05;;;;;;;16.32;62.42;100723.75;5071196;28;20045;-63
2023/03/30 09:17:36;;;;;;;25.48;4.95;;;;;;;16.50;61.85;100723.16;5062400;28;20052;-65
2023/03/30 09:20:20;;;;;;;22.42;5.10;;;;;;;16.62;61.25;100734.22;5068432;28;20053;-65
2023/03/30 09:22:48;;;;;;;22.67;4.38;;;;;;;16.62;61.32;100734.22;5061306;28;20074;-64
2023/03/30 09:25:25;;;;;;;88.65;7.57;;;;;;;16.81;61.33;100731.59;5060677;28;20515;-62
2023/03/30 09:28:09;;;;;;;22.63;4.18;;;;;;;16.97;60.78;100733.59;5064648;28;20049;-62
2023/03/30 09:31:01;;;;;;;28.88;4.65;;;;;;;17.05;60.56;100721.50;5056142;28;20059;-63
2023/03/30 09:33:38;;;;;;;14.73;3.45;;;;;;;17.31;59.70;100738.53;5049668;28;20060;-64
2023/03/30 09:36:17;;;;;;;17.88;3.80;;;;;;;17.40;59.34;100742.72;5061506;28;20056;-68
2023/03/30 09:38:45;;;;;;;24.40;4.60;;;;;;;17.13;58.99;100737.22;5062745;28;20048;-65
2023/03/30 09:41:40;;;;;;;21.52;4.05;;;;;;;17.39;57.54;100737.53;5058595;28;20040;-66
2023/03/30 09:44:17;;;;;;;16.15;3.80;;;;;;;17.20;57.19;100737.41;5068060;28;20049;-64
2023/03/30 09:46:45;;;;;;;17.25;4.20;;;;;;;17.12;57.67;100735.63;5063884;28;20061;-64
2023/03/30 09:49:14;;;;;;;20.80;4.18;;;;;;;17.42;57.64;100745.16;5066416;28;20048;-65
2023/03/30 09:51:54;;;;;;;18.90;4.20;;;;;;;17.62;57.23;100742.16;5072885;28;20048;-64
2023/03/30 09:54:22;;;;;;;22.42;4.35;;;;;;;17.64;55.80;100742.59;5063771;28;20044;-65
2023/03/30 09:56:52;;;;;;;21.77;4.32;;;;;;;17.47;56.92;100742.16;5065250;28;20056;-64
2023/03/30 09:59:24;;;;;;;21.02;4.07;;;;;;;17.68;56.00;100742.69;5066478;28;20589;-66
2023/03/30 10:01:52;;;;;;;21.38;5.03;;;;;;;17.63;56.13;100743.75;5061187;28;20045;-65
2023/03/30 10:04:19;;;;;;;26.17;4.70;;;;;;;17.51;56.60;100749.44;5055425;28;20045;-65
2023/03/30 10:06:48;;;;;;;22.75;4.38;;;;;;;17.42;56.36;100748.75;5063362;28;20056;-63
2023/03/30 10:09:20;;;;;;;19.60;4.25;;;;;;;17.42;56.26;100751.53;5059957;28;20059;-65
2023/03/30 10:11:49;;;;;;;21.50;4.85;;;;;;;17.56;56.25;100762.25;5043443;28;20052;-64
2023/03/30 10:14:35;;;;;;;27.75;4.95;;;;;;;17.65;55.18;100760.13;5063905;28;20060;-63
2023/03/30 10:17:03;;;;;;;21.98;4.88;;;;;;;17.70;55.08;100751.50;5066719;28;20052;-64
2023/03/30 10:19:33;;;;;;;23.20;4.20;;;;;;;17.52;55.69;100764.19;5062415;28;20056;-64
2023/03/30 10:22:15;;;;;;;25.05;4.95;;;;;;;17.31;55.57;100747.66;5062350;28;20040;-64
2023/03/30 10:24:56;;;;;;;23.40;4.75;;;;;;;17.39;55.40;100751.44;5065646;28;20407;-63
2023/03/30 10:27:32;;;;;;;25.45;4.38;;;;;;;17.23;55.72;100747.84;5067930;28;20403;-64
2023/03/30 10:30:09;;;;;;;22.63;4.32;;;;;;;17.30;54.70;100743.28;5073759;28;20067;-65
2023/03/30 10:32:37;;;;;;;26.70;6.22;;;;;;;17.41;54.46;100749.13;5069760;28;20041;-64
2023/03/30 10:35:07;;;;;;;20.13;6.90;;;;;;;17.17;54.44;100750.09;5074478;28;20780;-63
2023/03/30 10:37:41;;;;;;;24.42;5.30;;;;;;;17.09;53.96;100751.06;5064963;28;20053;-64
2023/03/30 10:40:17;;;;;;;29.55;6.80;;;;;;;16.99;55.50;100748.78;5065017;28;20067;-65
2023/03/30 10:42:46;;;;;;;22.42;6.78;;;;;;;17.42;54.90;100745.97;5067026;28;20056;-63
2023/03/30 10:45:17;;;;;;;22.15;5.10;;;;;;;17.43;55.05;100736.47;5064310;28;20052;-64
2023/03/30 10:47:50;;;;;;;21.42;4.68;;;;;;;17.43;54.39;100736.47;5073099;28;20044;-65
2023/03/30 10:50:31;;;;;;;26.13;5.28;;;;;;;17.80;52.75;100729.47;5067991;28;20052;-65
2023/03/30 10:53:26;;;;;;;26.50;4.93;;;;;;;17.74;52.12;100717.00;5070402;28;20053;-66
2023/03/30 10:56:14;;;;;;;21.45;5.38;;;;;;;17.84;52.29;100719.22;5070031;28;20052;-64
2023/03/30 10:58:54;;;;;;;22.10;5.60;;;;;;;17.95;51.78;100716.69;5068746;28;20049;-66
2023/03/30 11:01:55;;;;;;;22.45;7.80;;;;;;;18.28;51.13;100727.38;5066595;28;20049;-65
2023/03/30 11:04:30;;;;;;;29.13;8.15;;;;;;;18.35;50.72;100716.38;5070606;28;20112;-63
2023/03/30 11:06:59;;;;;;;24.15;6.88;;;;;;;18.36;50.39;100712.44;5066701;28;20060;-63
2023/03/30 11:09:31;;;;;;;25.30;6.15;;;;;;;18.27;51.05;100720.97;5067160;28;20053;-63
2023/03/30 11:12:04;;;;;;;25.45;6.35;;;;;;;18.52;50.38;100741.09;5073843;28;20047;-64
2023/03/30 11:14:55;;;;;;;25.35;5.40;;;;;;;18.46;50.24;100718.25;5071836;28;20063;-64
2023/03/30 11:17:39;;;;;;;25.30;6.53;;;;;;;18.46;49.77;100723.81;5065397;28;20060;-64
2023/03/30 11:20:22;;;;;;;26.85;5.43;;;;;;;18.47;48.88;100721.84;5057301;28;20506;-63
2023/03/30 11:23:04;;;;;;;26.63;5.75;;;;;;;18.30;49.42;100725.03;5072329;28;20491;-64
2023/03/30 11:25:35;;;;;;;28.88;6.53;;;;;;;18.05;49.54;100734.81;5071967;28;20419;-65
2023/03/30 11:28:49;;;;;;;51.13;17.50;;;;;;;17.94;49.54;100721.44;5047273;28;20056;-64
2023/03/30 11:31:25;;;;;;;31.17;6.32;;;;;;;17.82;49.37;100724.34;5046414;28;20049;-63
2023/03/30 11:33:59;;;;;;;26.40;5.22;;;;;;;17.91;49.50;100719.38;5046366;28;20411;-64
2023/03/30 11:36:35;;;;;;;24.73;4.95;;;;;;;17.96;48.91;100729.44;5054088;28;20061;-65
2023/03/30 11:39:06;;;;;;;20.67;4.40;;;;;;;17.82;49.77;100727.13;5063459;28;20045;-63
2023/03/30 11:41:56;;;;;;;26.02;5.43;;;;;;;18.25;49.52;100722.53;5069003;28;20032;-62
2023/03/30 11:44:23;;;;;;;21.33;5.55;;;;;;;18.25;49.01;100717.78;5062599;28;20048;-64
2023/03/30 11:46:59;;;;;;;26.95;6.38;;;;;;;18.42;49.32;100719.34;5071714;28;20045;-63
2023/03/30 11:49:32;;;;;;;23.60;5.60;;;;;;;18.33;50.64;100729.88;5064206;28;20057;-64
2023/03/30 11:52:00;;;;;;;17.98;5.43;;;;;;;18.45;49.43;100727.81;5060578;28;20045;-62
2023/03/30 11:54:52;;;;;;;20.60;4.68;;;;;;;17.99;50.29;100732.31;5065232;28;20048;-62
2023/03/30 11:57:39;;;;;;;19.92;4.30;;;;;;;17.24;52.48;100728.00;5061029;28;20045;-61
2023/03/30 12:00:10;;;;;;;21.23;4.63;;;;;;;17.29;53.27;100740.84;5062845;28;20056;-61